Time;durP1;ratioP1;P1;durP2;ratioP2;P2;SDS_P1;SDS_P2;PMS_P1;PMS_P2;Temp;Humidity;BMP_temperature;BMP_pressure;BME280_temperature;BME280_humidity;BME280_pressure;Samples;Min_cycle;Max_cycle;Signal;HPM_P1;HPM_P2
2024/03/13 00:01:02;;;;;;;19.17;11.20;;;;;;;4.48;100.00;98441.72;6108413;19;20022;-71
2024/03/13 00:03:02;;;;;;;20.38;11.18;;;;;;;4.44;100.00;98437.25;6105945;19;20461;-71
2024/03/13 00:05:04;;;;;;;21.50;11.43;;;;;;;4.38;100.00;98438.59;6107432;19;20011;-71
2024/03/13 00:07:04;;;;;;;22.92;11.68;;;;;;;4.30;100.00;98428.53;6107510;19;20006;-71
2024/03/13 00:09:05;;;;;;;20.30;11.68;;;;;;;4.26;100.00;98435.81;6107928;19;20050;-71
2024/03/13 00:11:05;;;;;;;25.95;12.50;;;;;;;4.17;100.00;98431.22;6107780;19;20002;-71
2024/03/13 00:13:05;;;;;;;21.27;11.60;;;;;;;4.12;100.00;98427.91;6105418;19;20355;-72
2024/03/13 00:15:06;;;;;;;20.92;12.38;;;;;;;4.07;100.00;98431.66;6101023;19;20011;-71
2024/03/13 00:17:07;;;;;;;19.50;11.15;;;;;;;3.98;100.00;98439.16;6100537;19;20010;-71
2024/03/13 00:19:09;;;;;;;21.08;11.05;;;;;;;3.89;100.00;98441.97;6099877;19;20359;-71
2024/03/13 00:21:09;;;;;;;20.67;11.52;;;;;;;3.86;100.00;98439.88;6100354;19;20043;-71
2024/03/13 00:23:09;;;;;;;21.55;11.95;;;;;;;3.82;100.00;98432.69;6097549;19;20003;-71
2024/03/13 00:25:12;;;;;;;18.08;10.70;;;;;;;3.78;100.00;98426.25;6099185;19;20028;-71
2024/03/13 00:27:13;;;;;;;22.13;11.70;;;;;;;3.76;100.00;98431.28;6100341;19;20009;-71
2024/03/13 00:29:13;;;;;;;20.92;11.15;;;;;;;3.71;100.00;98437.75;6105984;19;20042;-71
2024/03/13 00:31:14;;;;;;;23.33;12.75;;;;;;;3.66;100.00;98432.47;6105816;19;20006;-72
2024/03/13 00:33:14;;;;;;;25.08;14.60;;;;;;;3.59;100.00;98435.75;6104757;19;20529;-72
2024/03/13 00:35:15;;;;;;;22.83;13.05;;;;;;;3.53;100.00;98439.00;6105882;19;20014;-72
2024/03/13 00:37:16;;;;;;;26.92;13.98;;;;;;;3.48;100.00;98426.34;6105922;19;20019;-71
2024/03/13 00:39:16;;;;;;;26.40;12.88;;;;;;;3.45;100.00;98432.47;6106071;19;20010;-71
2024/03/13 00:41:16;;;;;;;25.42;13.43;;;;;;;3.39;100.00;98431.03;6104726;19;20092;-71
2024/03/13 00:43:18;;;;;;;24.40;12.60;;;;;;;3.34;100.00;98420.31;6102596;19;20038;-71
2024/03/13 00:45:18;;;;;;;23.75;12.45;;;;;;;3.29;100.00;98424.03;6105403;19;20110;-71
2024/03/13 00:47:23;;;;;;;22.40;12.60;;;;;;;3.21;100.00;98421.34;6105081;19;20499;-71
2024/03/13 00:49:23;;;;;;;29.55;12.68;;;;;;;3.16;100.00;98425.09;6104730;19;20003;-71
2024/03/13 00:51:24;;;;;;;27.45;12.57;;;;;;;3.11;100.00;98422.53;6105571;19;20012;-71
2024/03/13 00:53:24;;;;;;;29.60;12.38;;;;;;;3.07;100.00;98429.81;6103251;19;20414;-71
2024/03/13 00:55:27;;;;;;;21.73;11.23;;;;;;;2.98;100.00;98429.84;6105723;19;19995;-71
2024/03/13 00:57:27;;;;;;;;;;;;;;;2.94;100.00;98423.44;6106458;19;20727;-71
2024/03/13 00:59:29;;;;;;;27.02;12.00;;;;;;;2.94;100.00;98428.09;6104602;19;19911;-71
2024/03/13 01:01:29;;;;;;;24.55;12.27;;;;;;;2.83;100.00;98424.94;6104406;19;20003;-71
2024/03/13 01:03:30;;;;;;;23.42;11.30;;;;;;;2.72;100.00;98421.75;6103796;19;20003;-71
2024/03/13 01:05:31;;;;;;;23.40;11.65;;;;;;;2.62;100.00;98422.13;6105798;19;20240;-71
2024/03/13 01:07:31;;;;;;;23.00;11.48;;;;;;;2.48;100.00;98419.59;6103953;19;20323;-71
2024/03/13 01:09:32;;;;;;;21.88;10.93;;;;;;;2.39;100.00;98410.63;6103763;19;20005;-71
2024/03/13 01:11:34;;;;;;;21.13;10.18;;;;;;;2.42;100.00;98415.44;6102657;19;19995;-71
2024/03/13 01:13:34;;;;;;;24.23;11.07;;;;;;;2.38;100.00;98419.94;6102246;19;20003;-71
2024/03/13 01:15:34;;;;;;;23.50;12.23;;;;;;;2.38;100.00;98410.94;6111259;19;20001;-71
2024/03/13 01:17:35;;;;;;;21.25;9.57;;;;;;;2.37;100.00;98414.81;6111232;19;20002;-71
2024/03/13 01:19:36;;;;;;;20.60;9.43;;;;;;;2.39;100.00;98409.81;6110971;19;20003;-71
2024/03/13 01:21:36;;;;;;;19.63;10.00;;;;;;;2.31;100.00;98411.44;6108443;19;20036;-71
2024/03/13 01:23:39;;;;;;;19.95;9.85;;;;;;;2.22;100.00;98416.91;6109169;19;19998;-71
2024/03/13 01:25:44;;;;;;;23.83;10.13;;;;;;;2.14;100.00;98423.19;6110464;19;20012;-71
2024/03/13 01:27:46;;;;;;;20.55;9.75;;;;;;;2.16;100.00;98418.25;6110790;19;20473;-71
2024/03/13 01:29:48;;;;;;;18.98;9.48;;;;;;;2.09;100.00;98423.38;6110313;19;20488;-71
2024/03/13 01:31:48;;;;;;;20.35;9.18;;;;;;;2.04;100.00;98412.63;6108443;19;20010;-71
2024/03/13 01:33:48;;;;;;;19.17;10.18;;;;;;;1.95;100.00;98417.28;6109447;19;20003;-71
2024/03/13 01:35:48;;;;;;;16.60;8.90;;;;;;;1.85;100.00;98414.91;6109829;19;19999;-71
2024/03/13 01:37:58;;;;;;;20.67;10.13;;;;;;;1.87;100.00;98426.28;6110214;19;20050;-71
2024/03/13 01:40:03;;;;;;;21.52;10.20;;;;;;;1.81;100.00;98427.56;6108098;19;20002;-71
2024/03/13 01:56:27;;;;;;;19.25;9.63;;;;;;;1.80;100.00;98409.59;6110427;19;21017;-71
2024/03/13 01:58:40;;;;;;;21.13;10.57;;;;;;;1.86;100.00;98411.84;6109769;19;20006;-71
2024/03/13 02:02:58;;;;;;;20.50;10.20;;;;;;;1.88;100.00;98403.34;6107926;19;20132;-71
2024/03/13 02:04:59;;;;;;;21.73;9.77;;;;;;;1.87;100.00;98402.53;6109198;19;20034;-71
2024/03/13 02:06:59;;;;;;;21.23;9.80;;;;;;;1.84;100.00;98405.13;6109023;19;20062;-71
2024/03/13 02:09:00;;;;;;;18.15;9.40;;;;;;;1.87;100.00;98401.72;6109061;19;20007;-71
2024/03/13 02:11:00;;;;;;;18.50;9.68;;;;;;;1.85;100.00;98398.53;6109262;19;20332;-71
2024/03/13 02:13:02;;;;;;;20.30;9.90;;;;;;;1.85;100.00;98402.06;6107475;19;20007;-71
2024/03/13 02:15:04;;;;;;;21.17;10.00;;;;;;;1.80;100.00;98401.41;6109231;19;20463;-71
2024/03/13 02:17:06;;;;;;;21.58;10.18;;;;;;;1.74;100.00;98403.53;6110257;19;20718;-71
2024/03/13 02:19:07;;;;;;;24.05;10.63;;;;;;;1.68;100.00;98404.81;6109017;19;20066;-71
2024/03/13 02:21:08;;;;;;;24.23;10.07;;;;;;;1.59;100.00;98399.34;6109728;19;20380;-71
2024/03/13 02:23:09;;;;;;;18.67;9.13;;;;;;;1.48;100.00;98398.03;6108233;19;20014;-71
2024/03/13 02:25:10;;;;;;;19.20;9.20;;;;;;;1.40;100.00;98396.91;6109786;19;20003;-71
2024/03/13 02:27:11;;;;;;;22.20;10.85;;;;;;;1.36;100.00;98395.16;6109568;19;20262;-71
2024/03/13 02:29:13;;;;;;;17.42;8.80;;;;;;;1.35;100.00;98399.00;6110091;19;20013;-71
2024/03/13 02:31:13;;;;;;;;;;;;;;;1.28;100.00;98401.41;6109559;19;20002;-71
2024/03/13 02:33:14;;;;;;;30.45;10.00;;;;;;;1.20;100.00;98389.38;6108330;19;19930;-71
2024/03/13 02:35:14;;;;;;;19.42;9.75;;;;;;;1.19;100.00;98386.97;6108510;19;20019;-71
2024/03/13 02:37:14;;;;;;;19.48;9.45;;;;;;;1.17;100.00;98398.19;6109059;19;20417;-71
2024/03/13 02:39:18;;;;;;;23.20;9.90;;;;;;;1.07;100.00;98398.47;6110094;19;20466;-71
2024/03/13 02:41:18;;;;;;;18.17;8.55;;;;;;;0.96;100.00;98394.44;6109485;19;20010;-71
2024/03/13 02:43:19;;;;;;;18.80;9.30;;;;;;;0.88;100.00;98387.06;6107028;19;20411;-71
2024/03/13 02:45:19;;;;;;;18.35;9.90;;;;;;;0.78;100.00;98394.41;6107955;19;20079;-71
2024/03/13 02:47:20;;;;;;;20.17;10.27;;;;;;;0.68;100.00;98394.69;6109406;19;20733;-71
2024/03/13 02:49:21;;;;;;;18.95;9.18;;;;;;;0.63;100.00;98391.31;6109357;19;20907;-71
2024/03/13 02:51:21;;;;;;;18.88;8.70;;;;;;;0.55;100.00;98398.31;6107883;19;19998;-71
2024/03/13 02:53:21;;;;;;;18.67;8.40;;;;;;;0.49;100.00;98396.84;6107089;19;20003;-71
2024/03/13 02:55:22;;;;;;;17.52;9.65;;;;;;;0.45;100.00;98391.25;6108761;19;20466;-71
2024/03/13 02:57:25;;;;;;;14.82;8.43;;;;;;;0.45;100.00;98385.00;6108986;19;20010;-71
2024/03/13 02:59:25;;;;;;;15.48;7.65;;;;;;;0.47;100.00;98383.56;6108579;19;20020;-71
2024/03/13 03:01:26;;;;;;;19.38;9.32;;;;;;;0.51;100.00;98383.75;6109330;19;20479;-71
2024/03/13 03:03:30;;;;;;;18.90;8.95;;;;;;;0.45;100.00;98383.06;6107381;19;20443;-71
2024/03/13 03:05:32;;;;;;;18.83;9.05;;;;;;;0.44;100.00;98378.75;6108663;19;20006;-71
2024/03/13 03:07:33;;;;;;;23.27;8.68;;;;;;;0.47;100.00;98380.81;6108602;19;20471;-71
2024/03/13 03:09:34;;;;;;;19.05;8.93;;;;;;;0.49;100.00;98385.97;6108884;19;20562;-71
2024/03/13 03:11:35;;;;;;;20.13;9.32;;;;;;;0.47;100.00;98377.31;6107178;19;20021;-71
2024/03/13 03:13:35;;;;;;;17.98;9.18;;;;;;;0.52;100.00;98375.25;6107677;19;20329;-71
2024/03/13 03:15:38;;;;;;;19.45;8.93;;;;;;;0.53;100.00;98374.13;6107935;19;20002;-70
2024/03/13 03:17:38;;;;;;;18.13;9.68;;;;;;;0.56;100.00;98370.78;6107971;19;20010;-71
2024/03/13 03:19:39;;;;;;;16.13;8.73;;;;;;;0.54;100.00;98369.50;6107373;19;19998;-71
2024/03/13 03:21:39;;;;;;;18.92;8.98;;;;;;;0.46;100.00;98373.78;6107481;19;20763;-71
2024/03/13 03:23:40;;;;;;;22.60;9.88;;;;;;;0.40;100.00;98375.03;6107592;19;19999;-71
2024/03/13 03:25:40;;;;;;;16.73;8.80;;;;;;;0.39;100.00;98372.63;6107990;19;20365;-71
2024/03/13 03:27:40;;;;;;;20.08;9.85;;;;;;;0.40;100.00;98383.19;6107478;19;20007;-71
2024/03/13 03:29:41;;;;;;;19.45;9.15;;;;;;;0.36;100.00;98382.22;6107969;19;20006;-71
2024/03/13 03:31:41;;;;;;;19.70;9.45;;;;;;;0.26;100.00;98377.06;6106573;19;19995;-71
2024/03/13 03:33:41;;;;;;;19.02;9.43;;;;;;;0.17;100.00;98378.94;6107431;19;20007;-71
2024/03/13 03:35:43;;;;;;;18.80;9.65;;;;;;;0.22;100.00;98389.69;6107339;19;20015;-71
2024/03/13 03:37:43;;;;;;;19.42;8.70;;;;;;;0.28;100.00;98380.28;6107855;19;20562;-70
2024/03/13 03:39:43;;;;;;;19.15;9.20;;;;;;;0.31;100.00;98384.28;6108088;19;19994;-70
2024/03/13 03:41:47;;;;;;;16.58;8.10;;;;;;;0.32;100.00;98385.88;6106707;19;20957;-71
2024/03/13 03:43:47;;;;;;;22.67;10.07;;;;;;;0.39;100.00;98386.25;6106355;19;20054;-71
2024/03/13 03:45:47;;;;;;;20.67;9.55;;;;;;;0.38;100.00;98384.63;6107087;19;20325;-71
2024/03/13 03:47:47;;;;;;;17.23;8.52;;;;;;;0.39;100.00;98380.78;6107492;19;20024;-71
2024/03/13 03:49:48;;;;;;;17.48;8.80;;;;;;;0.34;100.00;98380.94;6106705;19;20470;-71
2024/03/13 03:51:49;;;;;;;21.10;9.95;;;;;;;0.34;100.00;98378.22;6106750;19;19998;-71
2024/03/13 03:53:49;;;;;;;22.45;10.38;;;;;;;0.40;100.00;98391.38;6107477;19;20406;-71
2024/03/13 03:55:49;;;;;;;16.50;9.13;;;;;;;0.41;100.00;98392.16;6107071;19;20019;-71
2024/03/13 03:57:50;;;;;;;21.90;9.50;;;;;;;0.41;100.00;98390.25;6107979;19;20011;-71
2024/03/13 03:59:50;;;;;;;22.02;9.15;;;;;;;0.49;100.00;98386.75;6107472;19;19998;-70
2024/03/13 04:01:50;;;;;;;17.50;8.43;;;;;;;0.59;100.00;98395.78;6105481;19;20444;-70
2024/03/13 04:03:51;;;;;;;20.77;9.80;;;;;;;0.61;100.00;98391.63;6111335;19;20005;-71
2024/03/13 04:05:51;;;;;;;18.50;8.80;;;;;;;0.67;100.00;98393.09;6112648;19;20045;-71
2024/03/13 04:07:51;;;;;;;18.73;9.35;;;;;;;0.73;100.00;98380.91;6112610;19;19998;-71
2024/03/13 04:09:52;;;;;;;21.38;10.07;;;;;;;0.82;100.00;98376.28;6111964;19;20007;-71
2024/03/13 04:11:52;;;;;;;20.35;9.60;;;;;;;0.89;100.00;98373.13;6110958;19;20010;-71
2024/03/13 04:13:53;;;;;;;24.23;12.23;;;;;;;0.96;100.00;98381.63;6103438;19;20018;-71
2024/03/13 04:15:53;;;;;;;28.00;12.02;;;;;;;1.01;100.00;98386.13;6111035;19;20365;-71
2024/03/13 04:17:53;;;;;;;30.17;12.63;;;;;;;1.03;100.00;98390.13;6112441;19;20365;-71
2024/03/13 04:19:54;;;;;;;31.27;14.07;;;;;;;1.04;100.00;98386.28;6112486;19;19999;-71
2024/03/13 04:21:54;;;;;;;24.80;11.02;;;;;;;1.04;100.00;98375.41;6110576;19;20011;-71
2024/03/13 04:23:54;;;;;;;23.02;11.32;;;;;;;1.07;100.00;98385.66;6111509;19;20006;-71
2024/03/13 04:25:55;;;;;;;25.90;10.80;;;;;;;1.13;100.00;98383.59;6112171;19;20055;-71
2024/03/13 04:27:55;;;;;;;26.45;11.52;;;;;;;1.12;100.00;98388.22;6112194;19;20328;-70
2024/03/13 04:29:55;;;;;;;23.70;10.82;;;;;;;1.17;100.00;98386.50;6111472;19;20007;-71
2024/03/13 04:31:57;;;;;;;21.77;11.25;;;;;;;1.21;100.00;98384.72;6109251;19;20022;-71
2024/03/13 04:33:57;;;;;;;22.40;11.27;;;;;;;1.23;100.00;98383.28;6111161;19;20003;-71
2024/03/13 04:35:58;;;;;;;23.05;10.98;;;;;;;1.29;100.00;98382.00;6111628;19;20313;-71
2024/03/13 04:37:58;;;;;;;23.00;11.30;;;;;;;1.30;100.00;98378.16;6111957;19;20006;-71
2024/03/13 04:39:59;;;;;;;20.98;10.98;;;;;;;1.36;100.00;98385.06;6110035;19;20014;-71
2024/03/13 04:41:59;;;;;;;23.33;11.35;;;;;;;1.43;100.00;98384.59;6109303;19;20116;-71
2024/03/13 04:44:02;;;;;;;21.27;10.85;;;;;;;1.45;100.00;98382.34;6110256;19;20006;-71
2024/03/13 04:46:03;;;;;;;23.05;10.55;;;;;;;1.49;100.00;98377.03;6109680;19;20477;-71
2024/03/13 04:48:07;;;;;;;22.38;10.68;;;;;;;1.52;100.00;98385.38;6110608;19;20006;-71
2024/03/13 04:50:08;;;;;;;19.33;9.80;;;;;;;1.56;100.00;98396.44;6111159;19;20082;-71
2024/03/13 04:52:08;;;;;;;21.63;11.30;;;;;;;1.54;100.00;98394.03;6110201;19;20078;-71
2024/03/13 04:54:09;;;;;;;21.55;10.30;;;;;;;1.51;100.00;98388.44;6111795;19;20028;-71
2024/03/13 04:56:11;;;;;;;24.13;10.52;;;;;;;1.47;100.00;98399.16;6112142;19;20030;-71
2024/03/13 04:58:11;;;;;;;22.90;10.63;;;;;;;1.48;100.00;98399.97;6110525;19;20005;-71
2024/03/13 05:00:12;;;;;;;22.35;10.38;;;;;;;1.46;100.00;98403.03;6107521;19;20463;-71
2024/03/13 05:02:14;;;;;;;22.10;10.07;;;;;;;1.45;100.00;98401.41;6109900;19;20329;-71
2024/03/13 05:04:14;;;;;;;19.52;9.52;;;;;;;1.44;100.00;98405.28;6107493;19;20112;-71
2024/03/13 05:06:15;;;;;;;22.77;10.65;;;;;;;1.42;100.00;98412.19;6106843;19;20011;-71
2024/03/13 05:08:16;;;;;;;20.77;10.63;;;;;;;1.38;100.00;98410.06;6109852;19;20325;-71
2024/03/13 05:10:17;;;;;;;22.85;10.75;;;;;;;1.39;100.00;98413.59;6110151;19;20014;-71
2024/03/13 05:12:17;;;;;;;18.08;10.00;;;;;;;1.41;100.00;98422.28;6109471;19;20006;-71
2024/03/13 05:14:17;;;;;;;22.67;10.35;;;;;;;1.44;100.00;98421.63;6105075;19;20058;-71
2024/03/13 05:16:18;;;;;;;21.08;10.75;;;;;;;1.44;100.00;98418.09;6104612;19;20427;-71
2024/03/13 05:18:19;;;;;;;24.58;11.40;;;;;;;1.49;100.00;98426.09;6103137;19;20685;-71
2024/03/13 05:20:19;;;;;;;22.55;11.00;;;;;;;1.53;100.00;98427.88;6103499;19;20002;-71
2024/03/13 05:22:20;;;;;;;22.27;11.20;;;;;;;1.54;100.00;98420.50;6101704;19;20274;-71
2024/03/13 05:24:20;;;;;;;29.30;12.40;;;;;;;1.54;100.00;98424.03;6101419;19;20762;-71
2024/03/13 05:26:20;;;;;;;25.70;12.43;;;;;;;1.55;100.00;98425.63;6102237;19;20043;-71
2024/03/13 05:28:21;;;;;;;26.55;11.75;;;;;;;1.56;100.00;98421.78;6102566;19;20518;-71
2024/03/13 05:30:23;;;;;;;26.75;12.18;;;;;;;1.59;100.00;98425.81;6103933;19;20501;-71
2024/03/13 05:32:24;;;;;;;24.30;11.40;;;;;;;1.61;100.00;98426.28;6103018;19;20006;-71
2024/03/13 05:34:24;;;;;;;20.65;9.63;;;;;;;1.64;100.00;98421.00;6104195;19;20315;-71
2024/03/13 05:36:24;;;;;;;22.73;11.40;;;;;;;1.67;100.00;98431.28;6105117;19;20098;-71
2024/03/13 05:38:24;;;;;;;24.75;12.32;;;;;;;1.72;100.00;98430.28;6104629;19;20092;-71
2024/03/13 05:40:25;;;;;;;22.98;12.02;;;;;;;1.75;100.00;98428.88;6104269;19;20500;-71
2024/03/13 05:42:25;;;;;;;25.65;12.50;;;;;;;1.78;100.00;98428.22;6102843;19;20003;-71
2024/03/13 05:44:27;;;;;;;33.30;13.02;;;;;;;1.84;100.00;98430.47;6103810;19;20094;-71
2024/03/13 05:46:27;;;;;;;26.93;13.03;;;;;;;1.88;100.00;98430.63;6102909;19;20463;-71
2024/03/13 05:48:27;;;;;;;27.98;11.88;;;;;;;1.94;100.00;98432.06;6094872;19;20021;-71
2024/03/13 05:50:28;;;;;;;31.30;11.68;;;;;;;1.96;100.00;98432.53;6095391;19;20003;-71
2024/03/13 05:52:28;;;;;;;22.40;10.38;;;;;;;1.96;100.00;98435.25;6099170;19;20013;-71
2024/03/13 05:54:28;;;;;;;26.52;12.40;;;;;;;2.03;100.00;98440.25;6102631;19;20010;-71
2024/03/13 05:56:29;;;;;;;24.88;12.07;;;;;;;2.03;100.00;98432.06;6102849;19;20011;-71
2024/03/13 05:58:29;;;;;;;27.98;12.95;;;;;;;2.04;100.00;98434.47;6100589;19;20403;-71
2024/03/13 06:00:29;;;;;;;29.10;12.65;;;;;;;2.08;100.00;98438.16;6101699;19;20002;-71
2024/03/13 06:02:30;;;;;;;24.58;11.48;;;;;;;2.11;100.00;98431.25;6101880;19;20006;-71
2024/03/13 06:04:31;;;;;;;25.20;11.18;;;;;;;2.14;100.00;98433.31;6103225;19;20030;-71
2024/03/13 06:06:31;;;;;;;26.83;11.75;;;;;;;2.21;100.00;98439.09;6105033;19;20002;-71
2024/03/13 06:08:33;;;;;;;23.67;10.85;;;;;;;2.23;100.00;98445.00;6101725;19;20010;-71
2024/03/13 06:10:33;;;;;;;28.83;11.80;;;;;;;2.26;100.00;98449.84;6103010;19;20068;-71
2024/03/13 06:12:34;;;;;;;26.90;12.00;;;;;;;2.27;100.00;98448.72;6102292;19;20038;-71
2024/03/13 06:14:37;;;;;;;24.00;11.93;;;;;;;2.30;100.00;98444.53;6106657;19;20422;-71
2024/03/13 06:16:37;;;;;;;26.92;12.38;;;;;;;2.31;100.00;98432.47;6111802;19;20010;-71
2024/03/13 06:18:38;;;;;;;27.65;13.40;;;;;;;2.34;100.00;98442.78;6110850;19;20039;-71
2024/03/13 06:20:38;;;;;;;27.20;13.32;;;;;;;2.36;100.00;98445.97;6110662;19;20017;-71
2024/03/13 06:22:40;;;;;;;27.60;12.82;;;;;;;2.36;100.00;98441.31;6108691;19;20010;-71
2024/03/13 06:24:40;;;;;;;30.10;14.60;;;;;;;2.40;100.00;98439.56;6110670;19;20403;-71
2024/03/13 06:26:45;;;;;;;30.60;13.80;;;;;;;2.44;100.00;98439.69;6109353;19;20020;-71
2024/03/13 06:31:05;;;;;;;32.22;14.68;;;;;;;2.48;100.00;98449.66;6110230;19;20013;-71
2024/03/13 06:33:05;;;;;;;25.50;13.45;;;;;;;2.52;100.00;98449.78;6108695;19;20003;-71
2024/03/13 06:35:06;;;;;;;29.48;12.63;;;;;;;2.55;100.00;98454.59;6109791;19;20038;-71
2024/03/13 06:37:07;;;;;;;27.75;13.00;;;;;;;2.56;100.00;98447.19;6110261;19;20094;-71
2024/03/13 06:39:09;;;;;;;31.15;12.70;;;;;;;2.57;100.00;98443.34;6111045;19;20039;-71
2024/03/13 06:41:10;;;;;;;45.90;20.77;;;;;;;2.61;100.00;98456.03;6109140;19;19998;-71
2024/03/13 06:43:10;;;;;;;33.67;17.02;;;;;;;2.65;100.00;98453.44;6108429;19;20003;-71
2024/03/13 06:45:11;;;;;;;47.67;20.42;;;;;;;2.69;100.00;98457.13;6109905;19;20003;-71
2024/03/13 06:47:11;;;;;;;40.42;18.20;;;;;;;2.69;100.00;98457.13;6110092;19;20621;-71
2024/03/13 06:49:11;;;;;;;57.20;26.13;;;;;;;2.74;100.00;98457.75;6109434;19;20014;-71
2024/03/13 06:51:13;;;;;;;67.00;28.27;;;;;;;2.75;100.00;98462.09;6110061;19;20039;-71
2024/03/13 06:53:13;;;;;;;55.38;26.23;;;;;;;2.78;100.00;98455.97;6108346;19;20011;-71
2024/03/13 06:55:14;;;;;;;41.30;19.65;;;;;;;2.81;100.00;98454.50;6109392;19;20019;-71
2024/03/13 06:57:14;;;;;;;41.30;19.30;;;;;;;2.85;100.00;98458.19;6108972;19;20007;-71
2024/03/13 06:59:19;;;;;;;40.03;17.95;;;;;;;2.89;100.00;98458.31;6109261;19;20463;-70
2024/03/13 07:01:19;;;;;;;44.15;17.02;;;;;;;2.93;100.00;98454.63;6110317;19;20014;-71
2024/03/13 07:03:19;;;;;;;40.45;16.13;;;;;;;2.99;100.00;98455.25;6107697;19;20006;-71
2024/03/13 07:05:20;;;;;;;38.70;17.27;;;;;;;3.06;100.00;98463.72;6108875;19;20025;-71
2024/03/13 07:07:22;;;;;;;69.43;33.38;;;;;;;3.17;100.00;98455.97;6109315;19;20040;-71
2024/03/13 07:09:24;;;;;;;49.90;22.60;;;;;;;3.22;100.00;98453.81;6109039;19;20006;-71
2024/03/13 07:11:25;;;;;;;40.72;20.77;;;;;;;3.28;100.00;98447.03;6108580;19;20011;-71
2024/03/13 07:13:25;;;;;;;38.42;19.85;;;;;;;3.36;100.00;98453.59;6107805;19;20006;-71
2024/03/13 07:15:25;;;;;;;36.40;17.73;;;;;;;3.42;100.00;98448.75;6109544;19;20006;-71
2024/03/13 07:17:27;;;;;;;34.70;14.95;;;;;;;3.46;100.00;98447.72;6108789;19;20007;-71
2024/03/13 07:19:28;;;;;;;32.17;15.18;;;;;;;3.51;100.00;98450.28;6109606;19;20002;-71
2024/03/13 07:21:29;;;;;;;31.98;14.57;;;;;;;3.57;100.00;98446.22;6107643;19;20006;-71
2024/03/13 07:23:29;;;;;;;37.17;14.75;;;;;;;3.62;100.00;98446.00;6107737;19;20010;-71
2024/03/13 07:25:29;;;;;;;40.53;16.15;;;;;;;3.66;100.00;98435.22;6108900;19;20551;-71
2024/03/13 07:27:30;;;;;;;54.17;23.63;;;;;;;3.76;100.00;98443.03;6108414;19;20006;-71
2024/03/13 07:29:30;;;;;;;57.88;23.42;;;;;;;3.85;100.00;98443.75;6109980;19;20074;-71
2024/03/13 07:31:31;;;;;;;57.75;24.83;;;;;;;3.95;100.00;98446.06;6108342;19;20007;-71
2024/03/13 07:33:31;;;;;;;61.90;26.13;;;;;;;4.05;100.00;98439.38;6107460;19;20013;-71
2024/03/13 07:35:31;;;;;;;54.88;22.55;;;;;;;4.11;100.00;98438.03;6108291;19;20010;-71
2024/03/13 07:37:32;;;;;;;43.53;20.02;;;;;;;4.18;100.00;98449.25;6106126;19;20003;-71
2024/03/13 07:39:34;;;;;;;43.78;17.60;;;;;;;4.27;100.00;98446.44;6105879;19;20011;-71
2024/03/13 07:41:34;;;;;;;39.07;16.83;;;;;;;4.32;100.00;98446.25;6107727;19;20013;-71
2024/03/13 07:43:34;;;;;;;35.83;16.95;;;;;;;4.41;100.00;98441.47;6108974;19;20082;-71
2024/03/13 07:45:41;;;;;;;37.97;17.00;;;;;;;4.49;100.00;98442.53;6107482;19;20011;-71
2024/03/13 07:47:45;;;;;;;36.78;16.20;;;;;;;4.50;100.00;98444.91;6108509;19;20326;-71
2024/03/13 07:49:45;;;;;;;38.10;15.70;;;;;;;4.50;100.00;98436.69;6108342;19;20187;-71
2024/03/13 07:51:46;;;;;;;33.30;13.95;;;;;;;4.48;100.00;98438.97;6107073;19;20022;-71
2024/03/13 07:53:47;;;;;;;29.88;14.40;;;;;;;4.58;100.00;98450.66;6108335;19;20013;-71
2024/03/13 07:55:49;;;;;;;42.25;19.50;;;;;;;4.63;100.00;98436.72;6107381;19;19998;-71
2024/03/13 07:57:49;;;;;;;42.00;18.35;;;;;;;4.69;100.00;98447.13;6108440;19;20002;-71
2024/03/13 07:59:50;;;;;;;39.03;17.35;;;;;;;4.72;100.00;98448.41;6108173;19;20003;-71
2024/03/13 08:01:50;;;;;;;34.50;16.95;;;;;;;4.71;100.00;98444.84;6106359;19;20023;-71
2024/03/13 08:03:50;;;;;;;33.10;14.43;;;;;;;4.70;100.00;98437.75;6108097;19;19999;-71
2024/03/13 08:05:51;;;;;;;30.63;14.23;;;;;;;4.70;100.00;98435.00;6106016;19;20574;-71
2024/03/13 08:07:52;;;;;;;35.22;15.32;;;;;;;4.71;100.00;98433.88;6107501;19;20467;-71
2024/03/13 08:09:52;;;;;;;27.80;14.20;;;;;;;4.75;100.00;98434.00;6108120;19;20002;-71
2024/03/13 08:11:52;;;;;;;28.75;12.75;;;;;;;4.78;100.00;98436.84;6106527;19;20003;-71
2024/03/13 08:13:54;;;;;;;41.17;18.33;;;;;;;4.88;100.00;98438.38;6107430;19;20037;-71
2024/03/13 08:15:54;;;;;;;42.15;14.98;;;;;;;4.95;100.00;98437.78;6108174;19;20007;-71
2024/03/13 08:17:55;;;;;;;29.55;12.98;;;;;;;5.00;100.00;98441.09;6107891;19;20384;-71
2024/03/13 08:19:55;;;;;;;22.30;10.70;;;;;;;5.05;100.00;98438.16;6107615;19;20006;-71
2024/03/13 08:21:56;;;;;;;22.73;9.60;;;;;;;5.18;100.00;98449.91;6105712;19;20108;-71
2024/03/13 08:23:56;;;;;;;19.60;9.07;;;;;;;5.27;100.00;98444.31;6107442;19;20002;-71
2024/03/13 08:25:59;;;;;;;14.00;7.18;;;;;;;5.45;100.00;98447.59;6107243;19;20034;-71
2024/03/13 08:27:59;;;;;;;23.45;9.98;;;;;;;5.60;100.00;98446.91;6108431;19;20013;-71
2024/03/13 08:29:59;;;;;;;20.73;9.40;;;;;;;5.71;100.00;98456.28;6107098;19;20411;-71
2024/03/13 08:32:00;;;;;;;11.57;6.53;;;;;;;5.90;100.00;98451.00;6105212;19;20085;-71
2024/03/13 08:34:00;;;;;;;13.95;7.38;;;;;;;5.94;100.00;98453.81;6107555;19;20326;-71
2024/03/13 08:36:02;;;;;;;12.77;6.57;;;;;;;6.02;100.00;98446.59;6107072;19;20058;-71
2024/03/13 08:38:02;;;;;;;8.52;4.32;;;;;;;6.11;100.00;98452.75;6106643;19;20103;-71
2024/03/13 08:40:06;;;;;;;8.43;4.85;;;;;;;6.28;100.00;98457.13;6106613;19;20026;-71
2024/03/13 08:42:07;;;;;;;7.25;4.40;;;;;;;6.51;100.00;98460.94;6105261;19;20036;-71
2024/03/13 08:44:09;;;;;;;6.43;3.45;;;;;;;6.60;100.00;98467.06;6106490;19;19995;-71
2024/03/13 08:46:09;;;;;;;4.70;3.17;;;;;;;6.70;100.00;98455.56;6106905;19;20055;-71
2024/03/13 08:48:10;;;;;;;5.72;3.20;;;;;;;6.76;100.00;98453.34;6105936;19;20023;-71
2024/03/13 08:50:11;;;;;;;6.15;3.45;;;;;;;6.83;100.00;98463.72;6112846;19;20003;-71
2024/03/13 08:52:12;;;;;;;3.50;2.33;;;;;;;6.91;100.00;98460.00;6110198;19;20010;-71
2024/03/13 08:54:12;;;;;;;4.55;2.88;;;;;;;6.96;100.00;98457.00;6112382;19;20066;-71
2024/03/13 08:56:13;;;;;;;4.93;2.80;;;;;;;7.09;100.00;98463.19;6113242;19;20024;-71
2024/03/13 08:58:13;;;;;;;5.28;2.70;;;;;;;7.27;100.00;98467.19;6112240;19;20006;-71
2024/03/13 09:00:15;;;;;;;6.72;3.90;;;;;;;7.45;100.00;98473.94;6110719;19;20002;-71
2024/03/13 09:02:16;;;;;;;12.88;6.22;;;;;;;7.57;100.00;98475.78;6110753;19;20006;-71
2024/03/13 09:04:17;;;;;;;12.57;5.72;;;;;;;7.55;100.00;98476.13;6110688;19;20038;-71
2024/03/13 09:06:18;;;;;;;8.98;5.35;;;;;;;7.58;100.00;98486.41;6112013;19;20391;-71
2024/03/13 09:08:19;;;;;;;9.30;5.15;;;;;;;7.61;100.00;98484.91;6111742;19;20014;-71
2024/03/13 09:10:19;;;;;;;5.57;3.42;;;;;;;7.65;100.00;98476.75;6112199;19;20026;-71
2024/03/13 09:12:19;;;;;;;8.93;4.22;;;;;;;7.71;100.00;98483.56;6110563;19;20031;-71
2024/03/13 09:14:20;;;;;;;6.78;4.00;;;;;;;7.72;100.00;98480.44;6103936;19;20580;-71
2024/03/13 09:16:21;;;;;;;7.32;4.13;;;;;;;7.81;100.00;98483.00;6112393;19;20012;-71
2024/03/13 09:18:22;;;;;;;6.22;3.97;;;;;;;7.94;100.00;98476.19;6112149;19;20019;-71
2024/03/13 09:20:25;;;;;;;8.50;3.50;;;;;;;7.95;100.00;98485.28;6111309;19;20003;-71
2024/03/13 09:22:25;;;;;;;8.93;4.95;;;;;;;8.16;100.00;98483.78;6109593;19;20010;-71
2024/03/13 09:24:26;;;;;;;7.97;4.68;;;;;;;8.29;100.00;98486.41;6111345;19;20501;-71
2024/03/13 09:26:26;;;;;;;6.28;3.80;;;;;;;8.34;100.00;98486.09;6112314;19;20082;-71
2024/03/13 09:28:27;;;;;;;4.20;3.00;;;;;;;8.18;100.00;98486.16;6111240;19;20015;-71
2024/03/13 09:30:28;;;;;;;4.53;2.50;;;;;;;8.08;100.00;98490.28;6111434;19;20376;-71
2024/03/13 09:32:28;;;;;;;4.90;2.80;;;;;;;8.14;100.00;98490.81;6108767;19;20132;-71
2024/03/13 09:34:29;;;;;;;3.75;2.35;;;;;;;8.11;100.00;98495.09;6110741;19;20325;-71
2024/03/13 09:36:29;;;;;;;3.85;2.00;;;;;;;8.10;100.00;98504.50;6111553;19;20002;-71
2024/03/13 09:38:30;;;;;;;3.10;2.10;;;;;;;8.08;100.00;98493.03;6110730;19;20026;-71